Time;durP1;ratioP1;P1;durP2;ratioP2;P2;SDS_P1;SDS_P2;PMS_P1;PMS_P2;Temp;Humidity;BMP_temperature;BMP_pressure;BME280_temperature;BME280_humidity;BME280_pressure;Samples;Min_cycle;Max_cycle;Signal;HPM_P1;HPM_P2
2023/05/20 00:00:06;;;;;;;1.55;1.45;;;;;;;;;;5013064;28;20215;-53
2023/05/20 00:02:32;;;;;;;1.65;1.55;;;;;;;;;;5012367;28;20317;-53
2023/05/20 00:04:58;;;;;;;2.10;1.90;;;;;;;;;;5008032;28;20180;-53
2023/05/20 00:07:24;;;;;;;1.60;1.50;;;;;;;;;;5013334;28;20176;-53
2023/05/20 00:09:50;;;;;;;2.75;1.85;;;;;;;;;;5009076;28;20207;-53
2023/05/20 00:12:16;;;;;;;1.63;1.42;;;;;;;;;;5007207;28;20212;-53
2023/05/20 00:14:42;;;;;;;2.08;1.60;;;;;;;;;;5008406;28;20192;-53
2023/05/20 00:17:08;;;;;;;1.77;1.63;;;;;;;;;;5014234;28;20278;-53
2023/05/20 00:19:34;;;;;;;1.80;1.55;;;;;;;;;;5011131;28;20231;-53
2023/05/20 00:22:00;;;;;;;2.15;1.73;;;;;;;;;;5028602;28;20216;-53
2023/05/20 00:24:26;;;;;;;2.65;1.50;;;;;;;;;;5011696;28;20228;-53
2023/05/20 00:26:52;;;;;;;1.77;1.65;;;;;;;;;;5013482;28;20180;-52
2023/05/20 00:29:19;;;;;;;2.28;1.70;;;;;;;;;;5011337;28;20280;-52
2023/05/20 00:31:45;;;;;;;1.77;1.67;;;;;;;;;;5008110;28;20452;-52
2023/05/20 00:34:11;;;;;;;1.52;1.42;;;;;;;;;;5012789;28;20283;-52
2023/05/20 00:36:37;;;;;;;3.13;1.52;;;;;;;;;;5013054;28;20241;-52
2023/05/20 00:39:03;;;;;;;1.60;1.45;;;;;;;;;;5008647;28;20197;-52
2023/05/20 00:41:29;;;;;;;1.77;1.67;;;;;;;;;;5007901;28;20565;-52
2023/05/20 00:43:55;;;;;;;1.67;1.58;;;;;;;;;;5008184;28;20212;-52
2023/05/20 00:46:21;;;;;;;2.63;1.83;;;;;;;;;;5011074;28;20607;-52
2023/05/20 00:48:47;;;;;;;1.55;1.42;;;;;;;;;;5004675;28;20173;-52
2023/05/20 00:51:13;;;;;;;1.90;1.70;;;;;;;;;;5002808;28;20185;-52
2023/05/20 00:53:39;;;;;;;2.03;1.70;;;;;;;;;;5015941;28;20184;-53
2023/05/20 00:56:06;;;;;;;1.50;1.40;;;;;;;;;;5013619;28;20235;-53
2023/05/20 00:58:32;;;;;;;1.50;1.40;;;;;;;;;;5032860;28;20591;-53
2023/05/20 01:00:58;;;;;;;1.50;1.40;;;;;;;;;;5015110;28;20176;-53
2023/05/20 01:03:24;;;;;;;1.50;1.38;;;;;;;;;;5014640;28;20506;-53
2023/05/20 01:05:50;;;;;;;1.65;1.55;;;;;;;;;;5014135;28;20181;-53
2023/05/20 01:08:16;;;;;;;1.50;1.40;;;;;;;;;;5013915;28;20200;-53
2023/05/20 01:10:45;;;;;;;1.70;1.48;;;;;;;;;;5011302;28;20202;-53
2023/05/20 01:13:14;;;;;;;2.30;1.50;;;;;;;;;;5017194;28;20296;-53
2023/05/20 01:15:41;;;;;;;1.95;1.70;;;;;;;;;;5010514;28;20184;-53
2023/05/20 01:18:09;;;;;;;1.95;1.70;;;;;;;;;;5015100;28;20195;-53
2023/05/20 01:20:36;;;;;;;1.67;1.50;;;;;;;;;;5014487;28;20188;-53
2023/05/20 01:23:02;;;;;;;2.00;1.80;;;;;;;;;;5016758;28;20223;-53
2023/05/20 01:25:28;;;;;;;1.67;1.58;;;;;;;;;;5007755;28;20188;-53
2023/05/20 01:27:56;;;;;;;1.60;1.50;;;;;;;;;;5009598;28;20218;-53
2023/05/20 01:30:22;;;;;;;1.70;1.60;;;;;;;;;;5014162;28;20560;-53
2023/05/20 01:32:52;;;;;;;1.50;1.40;;;;;;;;;;5015447;28;20531;-53
2023/05/20 01:35:19;;;;;;;1.70;1.60;;;;;;;;;;5009530;28;20230;-53
2023/05/20 01:37:45;;;;;;;2.10;1.90;;;;;;;;;;5009967;28;20211;-53
2023/05/20 01:40:13;;;;;;;1.88;1.67;;;;;;;;;;5012057;28;20185;-53
2023/05/20 01:42:40;;;;;;;2.25;2.05;;;;;;;;;;5015031;28;20240;-53
2023/05/20 01:45:07;;;;;;;2.08;1.90;;;;;;;;;;5008958;28;20192;-53
2023/05/20 01:47:33;;;;;;;3.13;1.92;;;;;;;;;;5011115;28;20181;-53
2023/05/20 01:49:58;;;;;;;1.80;1.70;;;;;;;;;;5011857;28;20283;-53
2023/05/20 01:52:24;;;;;;;1.65;1.50;;;;;;;;;;5010767;28;20264;-53
2023/05/20 01:54:50;;;;;;;2.10;2.00;;;;;;;;;;5016217;28;20495;-53
2023/05/20 01:57:20;;;;;;;2.05;1.90;;;;;;;;;;5010809;28;20224;-53
2023/05/20 01:59:46;;;;;;;2.08;1.83;;;;;;;;;;5011871;28;20184;-53
2023/05/20 02:02:13;;;;;;;2.05;1.95;;;;;;;;;;5014302;28;20212;-53
2023/05/20 02:04:39;;;;;;;1.80;1.70;;;;;;;;;;5015468;28;20431;-53
2023/05/20 02:07:05;;;;;;;2.45;2.15;;;;;;;;;;5008861;28;20228;-53
2023/05/20 02:09:30;;;;;;;1.80;1.70;;;;;;;;;;5013509;28;20189;-53
2023/05/20 02:11:56;;;;;;;1.98;1.83;;;;;;;;;;5013387;28;20223;-53
2023/05/20 02:14:22;;;;;;;2.33;2.13;;;;;;;;;;5016183;28;20475;-53
2023/05/20 02:16:48;;;;;;;2.10;1.73;;;;;;;;;;5009790;28;20263;-53
2023/05/20 02:19:18;;;;;;;2.85;1.85;;;;;;;;;;5010396;28;20283;-53
2023/05/20 02:21:47;;;;;;;2.50;2.30;;;;;;;;;;5014340;28;20271;-53
2023/05/20 02:24:13;;;;;;;3.38;2.10;;;;;;;;;;5015595;28;20211;-52
2023/05/20 02:26:40;;;;;;;2.00;1.90;;;;;;;;;;5015183;28;20189;-52
2023/05/20 02:29:06;;;;;;;2.63;2.03;;;;;;;;;;5015062;28;20203;-52
2023/05/20 02:31:32;;;;;;;3.28;2.47;;;;;;;;;;5015662;28;20180;-52
2023/05/20 02:33:58;;;;;;;2.28;2.03;;;;;;;;;;5013689;28;20195;-52
2023/05/20 02:36:23;;;;;;;2.30;2.10;;;;;;;;;;5015063;28;20204;-52
2023/05/20 02:38:50;;;;;;;1.95;1.85;;;;;;;;;;5003419;28;20222;-52
2023/05/20 02:41:16;;;;;;;2.17;1.98;;;;;;;;;;5010151;28;20169;-52
2023/05/20 02:43:43;;;;;;;2.50;2.28;;;;;;;;;;5010005;28;20216;-52
2023/05/20 02:46:09;;;;;;;2.85;2.30;;;;;;;;;;5008059;28;20255;-52
2023/05/20 02:48:35;;;;;;;2.45;2.10;;;;;;;;;;5004842;28;20274;-52
2023/05/20 02:51:01;;;;;;;2.75;2.10;;;;;;;;;;5009717;28;20180;-52
2023/05/20 02:53:27;;;;;;;2.50;2.30;;;;;;;;;;5011187;28;20637;-53
2023/05/20 02:55:53;;;;;;;2.70;2.50;;;;;;;;;;5014296;28;20194;-53
2023/05/20 02:58:25;;;;;;;2.75;2.55;;;;;;;;;;5011347;28;20202;-53
2023/05/20 03:00:50;;;;;;;2.50;2.30;;;;;;;;;;5009597;28;20258;-53
2023/05/20 03:03:16;;;;;;;2.72;2.40;;;;;;;;;;5014652;28;20601;-53
2023/05/20 03:05:44;;;;;;;2.78;2.50;;;;;;;;;;5011150;28;20257;-53
2023/05/20 03:08:11;;;;;;;2.67;2.47;;;;;;;;;;5015536;28;20168;-53
2023/05/20 03:10:40;;;;;;;3.20;2.85;;;;;;;;;;5013582;28;20527;-53
2023/05/20 03:13:07;;;;;;;2.90;2.60;;;;;;;;;;5014834;28;20607;-53
2023/05/20 03:15:34;;;;;;;2.53;2.33;;;;;;;;;;5007339;28;20244;-53
2023/05/20 03:18:00;;;;;;;2.75;2.55;;;;;;;;;;5008866;28;20298;-53
2023/05/20 03:20:27;;;;;;;2.63;2.40;;;;;;;;;;5013112;28;20200;-53
2023/05/20 03:22:53;;;;;;;2.63;2.42;;;;;;;;;;5014420;28;20514;-53
2023/05/20 03:25:20;;;;;;;2.70;2.50;;;;;;;;;;5007778;28;20212;-53
2023/05/20 03:27:46;;;;;;;2.42;2.22;;;;;;;;;;5013518;28;20307;-53
2023/05/20 03:30:12;;;;;;;2.80;2.60;;;;;;;;;;5002659;28;21776;-52
2023/05/20 03:32:38;;;;;;;2.83;2.60;;;;;;;;;;5024412;28;20180;-53
2023/05/20 03:35:05;;;;;;;3.05;2.75;;;;;;;;;;5008655;28;20188;-53
2023/05/20 03:37:31;;;;;;;2.53;2.30;;;;;;;;;;5017867;28;20203;-52
2023/05/20 03:39:56;;;;;;;3.63;2.85;;;;;;;;;;5013630;28;20590;-52
2023/05/20 03:42:22;;;;;;;3.05;2.85;;;;;;;;;;5026971;28;20212;-52
2023/05/20 03:44:48;;;;;;;2.88;2.63;;;;;;;;;;5008828;28;20188;-52
2023/05/20 03:47:14;;;;;;;5.32;2.83;;;;;;;;;;5011506;28;20431;-52
2023/05/20 03:49:40;;;;;;;2.75;2.55;;;;;;;;;;5009923;28;20292;-52
2023/05/20 03:52:07;;;;;;;2.72;2.53;;;;;;;;;;5013659;28;20304;-52
2023/05/20 03:54:34;;;;;;;2.95;2.72;;;;;;;;;;5002733;28;20196;-52
2023/05/20 03:57:02;;;;;;;3.20;2.40;;;;;;;;;;5008553;28;20190;-53
2023/05/20 03:59:28;;;;;;;3.60;2.88;;;;;;;;;;5009250;28;20180;-53
2023/05/20 04:01:55;;;;;;;3.10;2.80;;;;;;;;;;5010484;28;20196;-52
2023/05/20 04:04:21;;;;;;;2.88;2.67;;;;;;;;;;5011824;28;20181;-52
2023/05/20 04:06:47;;;;;;;3.58;2.88;;;;;;;;;;5006261;28;20191;-52
2023/05/20 04:09:13;;;;;;;4.53;2.97;;;;;;;;;;5014129;28;20467;-52
2023/05/20 04:11:39;;;;;;;8.23;3.33;;;;;;;;;;5011293;28;20262;-52
2023/05/20 04:14:05;;;;;;;6.25;3.53;;;;;;;;;;5010665;28;20451;-53
2023/05/20 04:16:31;;;;;;;8.20;3.72;;;;;;;;;;5009852;28;20816;-53
2023/05/20 04:18:58;;;;;;;9.77;4.07;;;;;;;;;;5008078;28;20263;-53
2023/05/20 04:21:24;;;;;;;14.68;4.68;;;;;;;;;;5010913;28;20568;-53
2023/05/20 04:23:50;;;;;;;11.07;5.15;;;;;;;;;;5023187;28;20585;-53
2023/05/20 04:26:15;;;;;;;14.43;5.43;;;;;;;;;;5009136;28;20196;-53
2023/05/20 04:28:41;;;;;;;13.95;6.28;;;;;;;;;;5016780;28;20185;-53
2023/05/20 04:31:07;;;;;;;19.35;6.80;;;;;;;;;;5024108;28;20494;-52
2023/05/20 04:33:36;;;;;;;26.35;8.60;;;;;;;;;;5016368;28;20199;-52
2023/05/20 04:36:04;;;;;;;20.45;7.03;;;;;;;;;;5018027;28;20193;-52
2023/05/20 04:38:31;;;;;;;25.90;8.95;;;;;;;;;;5015935;28;20553;-52
2023/05/20 04:40:57;;;;;;;28.50;9.82;;;;;;;;;;5013783;28;20176;-52
2023/05/20 04:43:23;;;;;;;26.42;9.55;;;;;;;;;;5007251;28;20604;-52
2023/05/20 04:45:49;;;;;;;20.38;8.25;;;;;;;;;;5009644;28;20465;-52
2023/05/20 04:48:15;;;;;;;25.67;10.18;;;;;;;;;;5011164;28;20242;-53
2023/05/20 04:50:41;;;;;;;32.53;9.68;;;;;;;;;;5013866;28;20177;-53
2023/05/20 04:53:07;;;;;;;25.73;9.70;;;;;;;;;;5014061;28;20189;-53
2023/05/20 04:55:36;;;;;;;32.92;9.98;;;;;;;;;;5016147;28;20193;-53
2023/05/20 04:58:02;;;;;;;24.88;9.73;;;;;;;;;;5014801;28;20191;-53
2023/05/20 05:00:28;;;;;;;26.40;10.13;;;;;;;;;;5013862;28;20211;-53
2023/05/20 05:02:54;;;;;;;27.45;9.40;;;;;;;;;;5011933;28;20247;-53
2023/05/20 05:05:20;;;;;;;28.10;9.65;;;;;;;;;;5016859;28;20204;-52
2023/05/20 05:07:46;;;;;;;29.73;10.30;;;;;;;;;;5017353;28;20228;-52
2023/05/20 05:10:14;;;;;;;30.95;10.27;;;;;;;;;;5026754;28;20180;-52
2023/05/20 05:12:40;;;;;;;33.22;10.05;;;;;;;;;;5027347;28;20181;-52
2023/05/20 05:15:06;;;;;;;26.77;10.32;;;;;;;;;;5015632;28;20184;-52
2023/05/20 05:17:32;;;;;;;23.80;10.13;;;;;;;;;;5014912;28;20447;-52
2023/05/20 05:19:58;;;;;;;23.02;10.07;;;;;;;;;;5015471;28;20219;-52
2023/05/20 05:22:24;;;;;;;32.58;9.88;;;;;;;;;;5016836;28;20215;-52
2023/05/20 05:24:50;;;;;;;25.05;9.02;;;;;;;;;;5009197;28;20215;-53
2023/05/20 05:27:16;;;;;;;29.55;10.05;;;;;;;;;;5014155;28;20177;-53
2023/05/20 05:29:42;;;;;;;26.15;9.70;;;;;;;;;;5014387;28;20173;-53
2023/05/20 05:32:08;;;;;;;28.10;11.02;;;;;;;;;;5014517;28;20241;-52
2023/05/20 05:34:33;;;;;;;23.35;9.38;;;;;;;;;;5014035;28;20176;-52
2023/05/20 05:37:02;;;;;;;25.10;9.25;;;;;;;;;;5014733;28;20267;-53
2023/05/20 05:39:27;;;;;;;27.10;11.00;;;;;;;;;;5013417;28;20189;-53
2023/05/20 05:41:54;;;;;;;22.95;9.10;;;;;;;;;;5016551;28;20180;-53
2023/05/20 05:44:20;;;;;;;26.42;9.48;;;;;;;;;;5016157;28;20485;-52
2023/05/20 05:46:46;;;;;;;26.23;10.93;;;;;;;;;;5013131;28;20191;-53
2023/05/20 05:49:12;;;;;;;23.77;9.23;;;;;;;;;;5028493;28;20557;-52
2023/05/20 05:51:38;;;;;;;25.52;9.95;;;;;;;;;;5013188;28;20271;-53
2023/05/20 05:54:04;;;;;;;19.17;9.52;;;;;;;;;;5028792;28;20195;-53
2023/05/20 05:56:30;;;;;;;22.45;9.25;;;;;;;;;;5008236;28;20184;-52
2023/05/20 05:58:56;;;;;;;21.23;9.48;;;;;;;;;;5016505;28;20204;-53
2023/05/20 06:01:22;;;;;;;26.48;10.27;;;;;;;;;;5011032;28;20185;-53
2023/05/20 06:03:48;;;;;;;24.77;9.60;;;;;;;;;;5012324;28;20650;-53
2023/05/20 06:06:14;;;;;;;22.70;9.57;;;;;;;;;;5016025;28;20188;-53
2023/05/20 06:08:40;;;;;;;24.42;9.35;;;;;;;;;;5013569;28;20177;-53
2023/05/20 06:11:06;;;;;;;20.45;8.98;;;;;;;;;;5015122;28;20176;-53
2023/05/20 06:13:32;;;;;;;23.20;9.60;;;;;;;;;;5015031;28;20439;-53
2023/05/20 06:15:57;;;;;;;22.25;9.07;;;;;;;;;;5014759;28;20189;-53
2023/05/20 06:18:23;;;;;;;20.23;8.70;;;;;;;;;;5014871;28;20242;-53
2023/05/20 06:20:59;;;;;;;17.90;9.15;;;;;;;;;;5014282;28;20212;-53
2023/05/20 06:23:25;;;;;;;18.08;8.73;;;;;;;;;;5008066;28;20220;-53
2023/05/20 06:25:51;;;;;;;21.63;9.15;;;;;;;;;;5008640;28;20178;-53
2023/05/20 06:28:17;;;;;;;20.58;8.73;;;;;;;;;;5010703;28;20184;-52
2023/05/20 06:30:43;;;;;;;21.35;8.45;;;;;;;;;;5014354;28;20179;-52
2023/05/20 06:33:10;;;;;;;23.55;9.45;;;;;;;;;;5015306;28;20267;-53
2023/05/20 06:35:36;;;;;;;19.60;8.85;;;;;;;;;;5029760;28;20189;-52
2023/05/20 06:38:02;;;;;;;16.42;8.10;;;;;;;;;;5013837;28;20192;-53
2023/05/20 06:40:28;;;;;;;20.13;9.02;;;;;;;;;;5014037;28;20279;-53
2023/05/20 06:42:54;;;;;;;17.15;8.35;;;;;;;;;;5026401;28;20212;-52
2023/05/20 06:45:20;;;;;;;19.63;8.45;;;;;;;;;;5014158;28;20187;-52
2023/05/20 06:47:47;;;;;;;20.42;8.65;;;;;;;;;;5012358;28;20185;-52
2023/05/20 06:50:14;;;;;;;12.15;7.03;;;;;;;;;;5007292;28;20339;-53
2023/05/20 06:52:40;;;;;;;17.75;8.13;;;;;;;;;;5013980;28;20193;-52
2023/05/20 06:55:06;;;;;;;15.95;8.27;;;;;;;;;;5013824;28;20189;-52
2023/05/20 06:57:32;;;;;;;15.95;8.07;;;;;;;;;;5013599;28;20181;-52
2023/05/20 06:59:59;;;;;;;12.80;7.47;;;;;;;;;;5029040;28;20189;-52
2023/05/20 07:02:25;;;;;;;18.30;8.02;;;;;;;;;;5014270;28;20582;-52
2023/05/20 07:04:51;;;;;;;15.38;8.05;;;;;;;;;;5013723;28;20184;-52
2023/05/20 07:07:17;;;;;;;15.38;7.45;;;;;;;;;;5014934;28;20256;-52
2023/05/20 07:09:43;;;;;;;14.48;8.23;;;;;;;;;;5010095;28;20184;-52
2023/05/20 07:12:09;;;;;;;14.80;7.72;;;;;;;;;;5015034;28;20177;-53
2023/05/20 07:14:35;;;;;;;15.32;7.50;;;;;;;;;;5014690;28;20191;-53
2023/05/20 07:17:01;;;;;;;13.90;7.15;;;;;;;;;;5013332;28;20186;-53
2023/05/20 07:19:26;;;;;;;14.32;7.32;;;;;;;;;;5029002;28;20254;-53
2023/05/20 07:21:52;;;;;;;13.48;8.02;;;;;;;;;;5013341;28;20263;-53
2023/05/20 07:24:18;;;;;;;13.13;7.50;;;;;;;;;;5009245;28;20216;-53
2023/05/20 07:26:44;;;;;;;13.82;7.30;;;;;;;;;;5009697;28;20189;-53
2023/05/20 07:29:10;;;;;;;11.68;6.65;;;;;;;;;;5012903;28;20181;-53
2023/05/20 07:31:36;;;;;;;11.77;6.85;;;;;;;;;;5014291;28;20181;-53
2023/05/20 07:34:02;;;;;;;13.20;6.93;;;;;;;;;;5014016;28;20258;-52
2023/05/20 07:36:28;;;;;;;16.20;7.63;;;;;;;;;;5013491;28;20185;-52
2023/05/20 07:38:54;;;;;;;11.38;7.55;;;;;;;;;;5013032;28;20185;-52
2023/05/20 07:41:21;;;;;;;11.68;6.85;;;;;;;;;;5012795;28;20187;-52
2023/05/20 07:43:47;;;;;;;12.68;7.10;;;;;;;;;;5012618;28;20203;-52
2023/05/20 07:46:15;;;;;;;12.40;6.60;;;;;;;;;;5012153;28;20254;-52
2023/05/20 07:48:41;;;;;;;13.98;7.45;;;;;;;;;;5012280;28;20180;-52
2023/05/20 07:51:07;;;;;;;16.58;7.30;;;;;;;;;;5006861;28;20511;-52
2023/05/20 07:53:33;;;;;;;11.52;6.93;;;;;;;;;;5007940;28;20192;-52
2023/05/20 07:55:59;;;;;;;10.93;6.43;;;;;;;;;;5012434;28;20192;-52
2023/05/20 07:58:25;;;;;;;13.82;7.15;;;;;;;;;;5014106;28;20230;-52
2023/05/20 08:00:51;;;;;;;13.95;7.15;;;;;;;;;;5006708;28;20184;-52
2023/05/20 08:03:18;;;;;;;11.50;6.88;;;;;;;;;;5013202;28;20219;-52
2023/05/20 08:05:44;;;;;;;10.52;6.63;;;;;;;;;;5015810;28;20184;-52
2023/05/20 08:08:10;;;;;;;11.07;6.90;;;;;;;;;;5016313;28;20407;-52
2023/05/20 08:10:36;;;;;;;11.57;6.97;;;;;;;;;;5014785;28;20176;-52
2023/05/20 08:13:02;;;;;;;13.52;6.75;;;;;;;;;;5009195;28;20184;-52
2023/05/20 08:15:28;;;;;;;10.70;6.30;;;;;;;;;;5014211;28;20187;-52
2023/05/20 08:17:54;;;;;;;11.82;6.20;;;;;;;;;;5013406;28;20200;-52
2023/05/20 08:20:20;;;;;;;10.50;6.13;;;;;;;;;;5011128;28;20220;-52
2023/05/20 08:22:46;;;;;;;10.70;6.80;;;;;;;;;;5016279;28;20212;-52
2023/05/20 08:25:12;;;;;;;10.57;6.63;;;;;;;;;;5009004;28;20262;-53
2023/05/20 08:27:38;;;;;;;12.50;6.85;;;;;;;;;;5017425;28;20541;-53
2023/05/20 08:30:05;;;;;;;11.65;6.78;;;;;;;;;;5007921;28;20458;-53
2023/05/20 08:32:31;;;;;;;10.70;6.35;;;;;;;;;;5011253;28;20263;-53
2023/05/20 08:35:00;;;;;;;10.20;6.25;;;;;;;;;;5015725;28;20303;-52
2023/05/20 08:37:26;;;;;;;9.60;6.10;;;;;;;;;;5014594;28;20172;-52
2023/05/20 08:39:52;;;;;;;10.68;6.47;;;;;;;;;;5014949;28;20433;-52
2023/05/20 08:42:23;;;;;;;12.13;6.18;;;;;;;;;;5015556;28;20185;-52
2023/05/20 08:44:49;;;;;;;11.57;5.97;;;;;;;;;;5026415;28;20211;-53
2023/05/20 08:47:15;;;;;;;9.82;6.18;;;;;;;;;;5011884;28;20191;-53
2023/05/20 08:49:41;;;;;;;10.30;6.25;;;;;;;;;;5010857;28;20185;-53
2023/05/20 08:52:10;;;;;;;8.38;5.63;;;;;;;;;;5011823;28;20188;-53
2023/05/20 08:54:46;;;;;;;8.23;5.55;;;;;;;;;;5016880;28;20231;-53
2023/05/20 08:57:12;;;;;;;10.38;6.28;;;;;;;;;;5013432;28;20568;-53
2023/05/20 08:59:40;;;;;;;10.43;6.20;;;;;;;;;;5031500;28;20433;-53
2023/05/20 09:02:06;;;;;;;7.93;5.07;;;;;;;;;;5011295;28;20187;-53
2023/05/20 09:04:32;;;;;;;12.38;5.70;;;;;;;;;;5016967;28;20173;-48
2023/05/20 09:06:58;;;;;;;12.30;5.93;;;;;;;;;;5017227;28;20185;-48
2023/05/20 09:09:24;;;;;;;10.27;6.20;;;;;;;;;;5009415;28;20630;-48
2023/05/20 09:11:50;;;;;;;10.68;5.75;;;;;;;;;;5016321;28;20226;-48
2023/05/20 09:14:16;;;;;;;14.82;6.35;;;;;;;;;;5014416;28;20255;-50
2023/05/20 09:16:42;;;;;;;12.50;5.43;;;;;;;;;;5015137;28;20600;-50
2023/05/20 09:19:08;;;;;;;12.68;6.10;;;;;;;;;;5014308;28;20196;-50
2023/05/20 09:21:34;;;;;;;14.18;5.93;;;;;;;;;;5032267;28;20472;-50
2023/05/20 09:24:03;;;;;;;15.30;6.15;;;;;;;;;;5018288;28;20580;-50
2023/05/20 09:26:29;;;;;;;14.55;6.55;;;;;;;;;;5014339;28;20215;-50
2023/05/20 09:28:56;;;;;;;10.77;5.93;;;;;;;;;;5018665;28;20214;-50
2023/05/20 09:31:25;;;;;;;14.95;5.80;;;;;;;;;;5012385;28;20830;-50
2023/05/20 09:33:51;;;;;;;11.75;5.82;;;;;;;;;;5031253;28;20180;-50
2023/05/20 09:36:18;;;;;;;12.88;6.55;;;;;;;;;;5029503;28;20204;-50
2023/05/20 09:38:46;;;;;;;11.52;6.32;;;;;;;;;;5015437;28;20200;-50
2023/05/20 09:41:14;;;;;;;8.48;5.70;;;;;;;;;;5030247;28;20251;-50
2023/05/20 09:43:40;;;;;;;10.80;6.57;;;;;;;;;;5016300;28;20402;-50
2023/05/20 09:46:07;;;;;;;8.52;5.57;;;;;;;;;;5015510;28;20602;-50
2023/05/20 09:48:37;;;;;;;8.63;5.32;;;;;;;;;;5015128;28;20288;-50
2023/05/20 09:51:04;;;;;;;12.05;6.20;;;;;;;;;;5014201;28;20184;-50
2023/05/20 09:53:30;;;;;;;13.13;6.75;;;;;;;;;;5016319;28;20266;-50
2023/05/20 09:55:58;;;;;;;8.45;6.25;;;;;;;;;;5015391;28;20448;-50
2023/05/20 09:58:24;;;;;;;10.30;6.40;;;;;;;;;;5003034;28;20211;-50
2023/05/20 10:00:50;;;;;;;10.25;5.93;;;;;;;;;;5014790;28;20192;-50
2023/05/20 10:03:17;;;;;;;9.07;6.07;;;;;;;;;;5016613;28;20903;-50
2023/05/20 10:05:48;;;;;;;11.73;7.40;;;;;;;;;;5009105;28;20180;-50
2023/05/20 10:08:33;;;;;;;13.25;5.97;;;;;;;;;;5015379;28;20191;-50
2023/05/20 10:11:05;;;;;;;7.65;5.90;;;;;;;;;;5012929;28;20195;-50
2023/05/20 10:13:34;;;;;;;9.20;5.88;;;;;;;;;;5015496;28;20168;-50
2023/05/20 10:16:06;;;;;;;11.35;6.07;;;;;;;;;;5014792;28;20185;-50
2023/05/20 10:18:51;;;;;;;8.77;6.45;;;;;;;;;;5015765;28;20211;-50
2023/05/20 10:21:18;;;;;;;8.57;6.28;;;;;;;;;;5003349;28;20188;-50
2023/05/20 10:23:44;;;;;;;7.75;6.20;;;;;;;;;;5012303;28;20476;-50
2023/05/20 10:26:10;;;;;;;7.57;6.18;;;;;;;;;;5015197;28;20427;-50
2023/05/20 10:28:36;;;;;;;9.20;6.55;;;;;;;;;;5014668;28;20263;-50
2023/05/20 10:31:03;;;;;;;8.13;6.03;;;;;;;;;;5013637;28;20196;-50
2023/05/20 10:33:29;;;;;;;9.40;6.10;;;;;;;;;;5023011;28;20188;-50
2023/05/20 10:35:59;;;;;;;8.32;5.70;;;;;;;;;;5015120;28;20184;-50
2023/05/20 10:38:25;;;;;;;8.13;5.82;;;;;;;;;;5015862;28;20181;-50
2023/05/20 10:40:52;;;;;;;7.57;5.90;;;;;;;;;;5013500;28;20176;-50
2023/05/20 10:43:27;;;;;;;8.27;6.60;;;;;;;;;;5006375;28;20622;-50
2023/05/20 10:45:53;;;;;;;8.02;6.65;;;;;;;;;;5001387;28;20203;-50
2023/05/20 10:48:20;;;;;;;7.50;6.30;;;;;;;;;;5015726;28;20168;-50
2023/05/20 10:50:46;;;;;;;7.40;6.40;;;;;;;;;;5015160;28;20259;-50
2023/05/20 10:53:14;;;;;;;6.97;6.18;;;;;;;;;;5013768;28;20192;-50
2023/05/20 10:55:41;;;;;;;7.78;6.30;;;;;;;;;;5019618;28;20201;-50
2023/05/20 10:58:07;;;;;;;7.90;6.22;;;;;;;;;;5013248;28;20188;-50
2023/05/20 11:00:36;;;;;;;8.93;6.88;;;;;;;;;;5010873;28;20180;-50
2023/05/20 11:03:03;;;;;;;9.25;6.95;;;;;;;;;;5007724;28;20192;-50
2023/05/20 11:05:30;;;;;;;7.28;6.53;;;;;;;;;;5014239;28;20422;-50
2023/05/20 11:08:03;;;;;;;8.02;6.65;;;;;;;;;;5012354;28;20268;-50
2023/05/20 11:10:29;;;;;;;7.95;6.30;;;;;;;;;;5007522;28;20180;-50
2023/05/20 11:12:56;;;;;;;7.07;6.32;;;;;;;;;;5014135;28;20507;-50
2023/05/20 11:15:23;;;;;;;8.45;6.63;;;;;;;;;;5009816;28;20188;-50
2023/05/20 11:17:56;;;;;;;8.13;6.55;;;;;;;;;;5011852;28;20471;-50
2023/05/20 11:20:23;;;;;;;7.82;6.65;;;;;;;;;;5006623;28;20243;-50
2023/05/20 11:22:50;;;;;;;8.05;7.00;;;;;;;;;;5013984;28;20204;-50
2023/05/20 11:25:16;;;;;;;9.00;6.45;;;;;;;;;;5008387;28;20177;-50
2023/05/20 11:27:42;;;;;;;8.88;6.70;;;;;;;;;;5016018;28;20180;-50
2023/05/20 11:30:09;;;;;;;7.50;6.40;;;;;;;;;;5011437;28;20188;-50
2023/05/20 11:32:36;;;;;;;9.55;6.88;;;;;;;;;;5013803;28;20165;-50
2023/05/20 11:35:03;;;;;;;7.05;6.15;;;;;;;;;;5011001;28;20192;-50
2023/05/20 11:37:29;;;;;;;9.75;6.43;;;;;;;;;;5009565;28;20416;-50
2023/05/20 11:40:08;;;;;;;8.23;6.45;;;;;;;;;;5011524;28;20191;-50
2023/05/20 11:42:34;;;;;;;7.97;6.68;;;;;;;;;;5007900;28;20486;-50
2023/05/20 11:45:00;;;;;;;9.07;6.45;;;;;;;;;;5015649;28;20200;-50
2023/05/20 11:47:26;;;;;;;8.32;6.30;;;;;;;;;;5006967;28;20181;-50
2023/05/20 11:49:52;;;;;;;7.43;6.47;;;;;;;;;;5007327;28;20191;-50
2023/05/20 11:52:18;;;;;;;7.75;5.78;;;;;;;;;;5012493;28;20181;-50
2023/05/20 11:54:44;;;;;;;7.63;6.15;;;;;;;;;;5010234;28;20187;-50
2023/05/20 11:57:13;;;;;;;8.07;6.40;;;;;;;;;;5009873;28;20180;-50
2023/05/20 11:59:39;;;;;;;7.53;6.25;;;;;;;;;;5007715;28;20236;-49
2023/05/20 12:02:05;;;;;;;7.30;6.43;;;;;;;;;;5010180;28;20176;-50
2023/05/20 12:04:31;;;;;;;6.70;6.00;;;;;;;;;;5014065;28;20227;-50
2023/05/20 12:06:57;;;;;;;6.80;5.75;;;;;;;;;;5010370;28;20184;-50
2023/05/20 12:09:23;;;;;;;7.55;6.57;;;;;;;;;;5010041;28;20188;-50
2023/05/20 12:11:49;;;;;;;7.53;6.70;;;;;;;;;;5012835;28;20623;-50
2023/05/20 12:14:15;;;;;;;6.53;5.88;;;;;;;;;;5012936;28;20176;-50
2023/05/20 12:16:41;;;;;;;9.13;6.40;;;;;;;;;;5009920;28;20553;-50
2023/05/20 12:19:08;;;;;;;7.03;6.20;;;;;;;;;;5010027;28;20192;-50
2023/05/20 12:21:34;;;;;;;9.23;5.88;;;;;;;;;;5014004;28;20177;-50
2023/05/20 12:24:00;;;;;;;6.68;5.97;;;;;;;;;;5005307;28;20215;-50
2023/05/20 12:26:27;;;;;;;7.32;6.47;;;;;;;;;;5013296;28;20176;-50
2023/05/20 12:28:54;;;;;;;7.50;6.60;;;;;;;;;;5013230;28;20205;-50
2023/05/20 12:31:20;;;;;;;6.97;6.28;;;;;;;;;;5012747;28;20181;-50
2023/05/20 12:33:46;;;;;;;9.70;5.97;;;;;;;;;;5008945;28;20193;-50
2023/05/20 12:36:12;;;;;;;8.88;6.43;;;;;;;;;;5014217;28;20207;-50
2023/05/20 12:38:38;;;;;;;6.78;5.70;;;;;;;;;;5011873;28;20185;-50
2023/05/20 12:41:04;;;;;;;7.65;6.25;;;;;;;;;;5011568;28;20192;-50
2023/05/20 12:43:30;;;;;;;8.60;6.18;;;;;;;;;;5013086;28;20584;-50
2023/05/20 12:45:56;;;;;;;6.88;5.93;;;;;;;;;;5011363;28;20220;-50
2023/05/20 12:48:22;;;;;;;6.38;5.75;;;;;;;;;;5014845;28;20422;-50
2023/05/20 12:50:48;;;;;;;9.50;6.72;;;;;;;;;;5028373;28;20184;-50
2023/05/20 12:53:14;;;;;;;7.00;6.30;;;;;;;;;;5013436;28;20202;-50
2023/05/20 12:55:40;;;;;;;7.90;5.97;;;;;;;;;;5035452;28;20215;-50
2023/05/20 12:58:09;;;;;;;6.97;5.88;;;;;;;;;;5018221;28;20634;-50
2023/05/20 13:00:35;;;;;;;9.15;6.13;;;;;;;;;;5016100;28;20196;-50
2023/05/20 13:03:01;;;;;;;7.90;5.85;;;;;;;;;;5014109;28;20213;-50
2023/05/20 13:05:27;;;;;;;6.07;5.47;;;;;;;;;;5012796;28;20180;-50
2023/05/20 13:07:53;;;;;;;6.15;5.55;;;;;;;;;;5032071;28;20456;-50
2023/05/20 13:10:19;;;;;;;6.38;5.78;;;;;;;;;;5009504;28;20444;-50
2023/05/20 13:12:45;;;;;;;6.72;6.00;;;;;;;;;;5016826;28;20282;-50
2023/05/20 13:15:13;;;;;;;6.80;5.90;;;;;;;;;;5013493;28;20187;-50
2023/05/20 13:17:39;;;;;;;7.85;6.03;;;;;;;;;;5013597;28;20279;-50
2023/05/20 13:20:06;;;;;;;6.40;5.60;;;;;;;;;;5009552;28;20210;-50
2023/05/20 13:22:32;;;;;;;6.53;5.93;;;;;;;;;;5016982;28;20204;-50
2023/05/20 13:24:58;;;;;;;7.15;6.32;;;;;;;;;;5008860;28;20220;-50
2023/05/20 13:27:24;;;;;;;7.13;5.97;;;;;;;;;;5013120;28;20721;-50
2023/05/20 13:29:49;;;;;;;7.18;5.45;;;;;;;;;;5015902;28;21890;-50
2023/05/20 13:32:15;;;;;;;6.68;6.07;;;;;;;;;;5016183;28;20259;-50
2023/05/20 13:34:41;;;;;;;6.63;5.90;;;;;;;;;;5016189;28;20187;-50
2023/05/20 13:37:07;;;;;;;7.00;6.20;;;;;;;;;;5014757;28;20473;-50
2023/05/20 13:39:34;;;;;;;8.05;6.38;;;;;;;;;;5015940;28;20212;-50
2023/05/20 13:42:00;;;;;;;6.88;5.65;;;;;;;;;;5013079;28;20191;-50
2023/05/20 13:44:25;;;;;;;7.22;6.00;;;;;;;;;;5015698;28;20212;-50
2023/05/20 13:46:51;;;;;;;6.47;5.78;;;;;;;;;;5012735;28;20265;-50
2023/05/20 13:49:17;;;;;;;6.50;5.78;;;;;;;;;;5030889;28;20176;-50
2023/05/20 13:51:44;;;;;;;6.30;5.70;;;;;;;;;;5014714;28;20585;-50
2023/05/20 13:54:10;;;;;;;6.28;5.68;;;;;;;;;;5015159;28;20176;-50
2023/05/20 13:56:37;;;;;;;6.70;6.00;;;;;;;;;;5016375;28;20583;-50
2023/05/20 13:59:03;;;;;;;6.63;6.03;;;;;;;;;;5007142;28;20180;-50
2023/05/20 14:01:31;;;;;;;8.40;6.00;;;;;;;;;;5015591;28;20190;-50
2023/05/20 14:03:58;;;;;;;6.53;5.93;;;;;;;;;;5015360;28;20253;-50
2023/05/20 14:06:24;;;;;;;6.97;6.00;;;;;;;;;;5012571;28;20194;-50
2023/05/20 14:08:50;;;;;;;7.15;6.00;;;;;;;;;;5011096;28;20169;-50
2023/05/20 14:11:16;;;;;;;6.47;5.78;;;;;;;;;;5015806;28;20184;-50
2023/05/20 14:13:43;;;;;;;5.95;5.35;;;;;;;;;;5019720;28;20212;-50
2023/05/20 14:16:09;;;;;;;7.38;5.55;;;;;;;;;;5021055;28;20176;-50
2023/05/20 14:18:35;;;;;;;6.03;5.18;;;;;;;;;;5009462;28;20200;-50
2023/05/20 14:21:01;;;;;;;6.63;5.90;;;;;;;;;;5022095;28;20200;-50
2023/05/20 14:23:26;;;;;;;7.68;6.38;;;;;;;;;;5009455;28;20592;-50
2023/05/20 14:25:53;;;;;;;6.38;5.72;;;;;;;;;;5010596;28;20445;-50
2023/05/20 14:28:18;;;;;;;6.45;5.85;;;;;;;;;;5009315;28;20179;-50
2023/05/20 14:30:44;;;;;;;6.05;5.47;;;;;;;;;;5009317;28;20184;-50
2023/05/20 14:33:10;;;;;;;6.45;5.72;;;;;;;;;;5016608;28;20203;-50